Time;durP1;ratioP1;P1;durP2;ratioP2;P2;SDS_P1;SDS_P2;PMS_P1;PMS_P2;Temp;Humidity;BMP_temperature;BMP_pressure;BME280_temperature;BME280_humidity;BME280_pressure;Samples;Min_cycle;Max_cycle;Signal;HPM_P1;HPM_P2
2022/07/30 00:01:30;;;;;;;19.58;8.55;;;;;;;17.54;100.00;101770.78;5054887;28;20467;-52
2022/07/30 00:03:55;;;;;;;18.83;7.38;;;;;;;17.43;100.00;101760.41;5053795;28;20035;-51
2022/07/30 00:06:21;;;;;;;16.48;7.82;;;;;;;17.47;100.00;101759.88;5054210;28;20024;-51
2022/07/30 00:08:46;;;;;;;28.35;8.02;;;;;;;17.38;100.00;101754.72;5054717;28;20039;-52
2022/07/30 00:11:11;;;;;;;25.88;9.50;;;;;;;17.27;100.00;101759.56;5053973;28;20139;-48
2022/07/30 00:13:37;;;;;;;25.42;9.05;;;;;;;17.26;100.00;101766.00;5055039;28;20111;-52
2022/07/30 00:16:02;;;;;;;30.27;9.18;;;;;;;17.27;100.00;101754.16;5058424;28;20027;-47
2022/07/30 00:18:28;;;;;;;24.73;10.18;;;;;;;17.29;100.00;101752.13;5056683;28;20017;-48
2022/07/30 00:20:53;;;;;;;20.90;9.40;;;;;;;17.34;100.00;101752.44;5058435;28;20032;-49
2022/07/30 00:23:18;;;;;;;22.65;10.20;;;;;;;17.34;100.00;101748.88;5054007;28;20495;-51
2022/07/30 00:25:44;;;;;;;23.17;10.23;;;;;;;17.36;100.00;101745.97;5058742;28;20108;-49
2022/07/30 00:28:09;;;;;;;24.30;10.02;;;;;;;17.34;100.00;101746.16;5057419;28;20631;-50
2022/07/30 00:30:34;;;;;;;27.70;10.70;;;;;;;17.38;100.00;101742.09;5055871;28;20448;-49
2022/07/30 00:33:00;;;;;;;26.00;10.15;;;;;;;17.35;100.00;101753.25;5058489;28;20032;-48
2022/07/30 00:35:26;;;;;;;26.83;10.63;;;;;;;17.36;100.00;101744.13;5056407;28;20051;-49
2022/07/30 00:37:51;;;;;;;26.08;11.02;;;;;;;17.39;100.00;101753.72;5058510;28;20027;-49
2022/07/30 00:40:17;;;;;;;24.05;11.50;;;;;;;17.34;100.00;101744.31;5057427;28;20024;-51
2022/07/30 00:42:45;;;;;;;22.77;11.18;;;;;;;17.30;100.00;101747.56;5058554;28;20230;-52
2022/07/30 00:45:11;;;;;;;36.47;11.93;;;;;;;17.25;100.00;101753.50;5055514;28;20031;-50
2022/07/30 00:47:37;;;;;;;30.55;11.73;;;;;;;17.22;100.00;101753.03;5057901;28;20417;-51
2022/07/30 00:50:06;;;;;;;24.58;11.65;;;;;;;17.17;100.00;101753.56;5057093;28;20035;-51
2022/07/30 00:52:32;;;;;;;26.90;11.98;;;;;;;17.19;100.00;101756.94;5058274;28;20029;-50
2022/07/30 00:54:58;;;;;;;23.23;11.40;;;;;;;17.15;100.00;101751.06;5057233;28;20025;-50
2022/07/30 00:57:24;;;;;;;25.65;11.82;;;;;;;17.11;100.00;101747.06;5056441;28;20036;-49
2022/07/30 00:59:49;;;;;;;24.25;11.05;;;;;;;17.12;100.00;101748.75;5055879;28;20101;-50
2022/07/30 01:02:15;;;;;;;31.25;12.88;;;;;;;17.01;100.00;101746.47;5056852;28;20032;-51
2022/07/30 01:04:40;;;;;;;29.98;12.70;;;;;;;16.94;100.00;101746.34;5056373;28;20030;-48
2022/07/30 01:07:05;;;;;;;27.88;12.52;;;;;;;16.91;100.00;101748.59;5057779;28;20048;-49
2022/07/30 01:09:30;;;;;;;26.45;11.88;;;;;;;16.94;100.00;101745.53;5050724;28;20390;-47
2022/07/30 01:11:57;;;;;;;26.48;11.25;;;;;;;16.94;100.00;101745.53;5057804;28;20383;-49
2022/07/30 01:14:22;;;;;;;22.95;11.65;;;;;;;16.91;100.00;101740.50;5056191;28;20036;-51
2022/07/30 01:16:47;;;;;;;30.50;11.75;;;;;;;16.90;100.00;101741.50;5057702;28;20020;-49
2022/07/30 01:22:41;;;;;;;25.95;12.15;;;;;;;16.81;100.00;101727.22;5058190;28;20097;-47
2022/07/30 01:25:25;;;;;;;27.08;12.63;;;;;;;16.82;100.00;101731.59;5046563;28;20614;-51
2022/07/30 01:28:04;;;;;;;26.15;12.65;;;;;;;16.74;100.00;101737.03;5057532;28;20024;-48
2022/07/30 01:30:34;;;;;;;24.85;12.30;;;;;;;16.70;100.00;101731.19;5055227;28;20020;-46
2022/07/30 01:33:01;;;;;;;24.07;12.50;;;;;;;16.68;100.00;101741.28;5057298;28;20028;-49
2022/07/30 01:35:29;;;;;;;23.63;12.35;;;;;;;16.66;100.00;101742.50;5056259;28;20798;-50
2022/07/30 01:37:56;;;;;;;26.40;13.07;;;;;;;16.68;100.00;101737.75;5057066;28;20024;-49
2022/07/30 01:40:22;;;;;;;29.92;12.90;;;;;;;16.68;100.00;101738.59;5056421;28;20029;-49
2022/07/30 01:42:53;;;;;;;28.60;14.85;;;;;;;16.54;100.00;101744.75;5057582;28;20028;-49
2022/07/30 01:45:22;;;;;;;30.83;14.40;;;;;;;16.45;100.00;101735.88;5043118;28;20028;-51
2022/07/30 01:47:48;;;;;;;24.73;13.35;;;;;;;16.37;100.00;101736.75;5057021;28;20085;-50
2022/07/30 01:50:14;;;;;;;29.48;13.35;;;;;;;16.35;100.00;101741.50;5056338;28;20035;-51
2022/07/30 01:52:46;;;;;;;25.40;13.95;;;;;;;16.34;100.00;101745.19;5056927;28;20429;-50
2022/07/30 01:55:14;;;;;;;24.27;13.90;;;;;;;16.31;100.00;101745.59;5056389;28;20127;-48
2022/07/30 01:57:40;;;;;;;23.23;13.73;;;;;;;16.27;100.00;101749.63;5053668;28;20103;-50
2022/07/30 02:00:06;;;;;;;29.13;14.52;;;;;;;16.22;100.00;101749.31;5054371;28;20210;-49
2022/07/30 02:02:35;;;;;;;37.75;15.35;;;;;;;16.20;100.00;101746.78;5057570;28;20528;-49
2022/07/30 02:05:00;;;;;;;30.45;14.85;;;;;;;16.19;100.00;101745.13;5055277;28;20020;-47
2022/07/30 02:07:59;;;;;;;27.80;15.52;;;;;;;16.28;100.00;101745.09;5056324;28;20024;-46
2022/07/30 02:10:33;;;;;;;32.58;14.63;;;;;;;16.24;100.00;101749.97;5056029;28;20180;-49
2022/07/30 02:13:01;;;;;;;28.75;15.13;;;;;;;16.26;100.00;101753.34;5056993;28;20027;-49
2022/07/30 02:15:50;;;;;;;28.98;15.65;;;;;;;16.23;100.00;101746.44;5055036;28;20371;-51
2022/07/30 02:18:21;;;;;;;26.60;15.25;;;;;;;16.20;100.00;101749.50;5055451;28;20009;-50
2022/07/30 02:20:53;;;;;;;27.75;16.27;;;;;;;16.14;100.00;101754.75;5056183;28;20058;-48
2022/07/30 02:23:20;;;;;;;25.23;15.52;;;;;;;16.00;100.00;101751.78;5054411;28;20383;-50
2022/07/30 02:25:48;;;;;;;27.85;15.43;;;;;;;16.01;100.00;101758.03;5054663;28;20020;-49
2022/07/30 02:28:17;;;;;;;24.67;16.17;;;;;;;15.99;100.00;101755.50;5055570;28;20403;-47
2022/07/30 02:30:54;;;;;;;30.30;16.58;;;;;;;15.98;100.00;101751.09;5054577;28;20036;-49
2022/07/30 02:33:24;;;;;;;28.80;16.48;;;;;;;15.99;100.00;101755.50;5055318;28;20111;-47
2022/07/30 02:35:51;;;;;;;32.72;16.85;;;;;;;16.01;100.00;101748.06;5055583;28;20036;-50
2022/07/30 02:38:19;;;;;;;29.40;16.13;;;;;;;16.04;100.00;101745.03;5055104;28;20414;-50
2022/07/30 02:40:45;;;;;;;32.40;16.48;;;;;;;15.97;100.00;101738.66;5041967;28;20553;-47
2022/07/30 02:43:14;;;;;;;31.90;17.42;;;;;;;15.91;100.00;101749.31;5055476;28;20036;-49
2022/07/30 02:45:40;;;;;;;34.42;17.88;;;;;;;15.82;100.00;101748.50;5054123;28;20017;-49
2022/07/30 02:48:09;;;;;;;30.73;17.00;;;;;;;15.71;100.00;101752.34;5054125;28;20518;-50
2022/07/30 02:50:35;;;;;;;32.05;17.45;;;;;;;15.73;100.00;101749.50;5055445;28;20032;-49
2022/07/30 02:53:04;;;;;;;31.58;16.77;;;;;;;15.75;100.00;101751.03;5054917;28;20107;-50
2022/07/30 02:55:34;;;;;;;31.10;17.67;;;;;;;15.70;100.00;101750.69;5055491;28;20081;-51
2022/07/30 02:58:01;;;;;;;34.67;16.50;;;;;;;15.72;100.00;101753.22;5056211;28;20023;-51
2022/07/30 03:00:28;;;;;;;27.98;16.88;;;;;;;15.75;100.00;101753.72;5053044;28;20144;-51
2022/07/30 03:02:55;;;;;;;30.15;16.83;;;;;;;15.74;100.00;101753.88;5055306;28;20027;-50
2022/07/30 03:05:20;;;;;;;30.33;16.40;;;;;;;15.68;100.00;101758.06;5053083;28;20024;-51
2022/07/30 03:07:46;;;;;;;30.27;17.83;;;;;;;15.65;100.00;101759.28;5053520;28;20019;-49
2022/07/30 03:10:13;;;;;;;30.35;17.15;;;;;;;15.60;100.00;101758.94;5044126;28;20032;-51
2022/07/30 03:12:43;;;;;;;38.05;18.58;;;;;;;15.54;100.00;101764.19;5055826;28;20031;-49
2022/07/30 03:15:09;;;;;;;32.58;18.92;;;;;;;15.47;100.00;101762.16;5053549;28;20294;-48
2022/07/30 03:17:39;;;;;;;32.35;18.10;;;;;;;15.41;100.00;101762.00;5055587;28;20059;-49
2022/07/30 03:20:09;;;;;;;38.53;19.27;;;;;;;15.41;100.00;101762.00;5054187;28;20024;-48
2022/07/30 03:22:40;;;;;;;34.45;19.45;;;;;;;15.40;100.00;101761.16;5054948;28;20618;-50
2022/07/30 03:25:08;;;;;;;33.60;19.02;;;;;;;15.34;100.00;101761.84;5054617;28;20033;-50
2022/07/30 03:27:36;;;;;;;35.05;20.80;;;;;;;15.32;100.00;101758.47;5055469;28;20605;-50
2022/07/30 03:30:04;;;;;;;42.78;19.10;;;;;;;15.33;100.00;101759.34;5052179;28;20666;-51
2022/07/30 03:32:31;;;;;;;31.10;18.50;;;;;;;15.25;100.00;101747.56;5055215;28;20129;-48
2022/07/30 03:34:57;;;;;;;36.67;19.20;;;;;;;15.32;100.00;101761.19;5053297;28;20028;-49
2022/07/30 03:37:25;;;;;;;39.00;19.10;;;;;;;15.29;100.00;101759.69;5054922;28;20024;-47
2022/07/30 03:39:52;;;;;;;35.55;19.27;;;;;;;15.24;100.00;101747.72;5054505;28;20526;-50
2022/07/30 03:42:19;;;;;;;37.60;19.25;;;;;;;15.17;100.00;101755.63;5053889;28;20024;-50
2022/07/30 03:44:45;;;;;;;40.85;21.30;;;;;;;15.14;100.00;101764.06;5040978;28;20021;-49
2022/07/30 03:47:12;;;;;;;38.63;20.88;;;;;;;15.15;100.00;101760.34;5054938;28;20475;-50
2022/07/30 03:49:37;;;;;;;30.63;19.75;;;;;;;15.20;100.00;101763.38;5057582;28;20020;-48
2022/07/30 03:52:03;;;;;;;36.22;18.73;;;;;;;15.21;100.00;101769.63;5059792;28;20482;-48
2022/07/30 03:54:32;;;;;;;40.55;18.42;;;;;;;15.13;100.00;101770.44;5058907;28;20132;-50
2022/07/30 03:56:59;;;;;;;32.17;18.55;;;;;;;15.09;100.00;101780.72;5059082;28;20092;-49
2022/07/30 03:59:24;;;;;;;31.83;18.48;;;;;;;15.10;100.00;101774.31;5057144;28;20098;-47
2022/07/30 04:01:49;;;;;;;36.40;19.52;;;;;;;15.07;100.00;101777.34;5059169;28;20596;-49
2022/07/30 04:04:15;;;;;;;38.20;18.17;;;;;;;15.10;100.00;101782.41;5054924;28;20024;-47
2022/07/30 04:06:41;;;;;;;30.40;18.65;;;;;;;15.00;100.00;101784.38;5059108;28;20039;-48
2022/07/30 04:09:09;;;;;;;36.72;18.75;;;;;;;14.90;100.00;101789.09;5057282;28;20055;-51
2022/07/30 04:11:35;;;;;;;29.80;18.02;;;;;;;14.94;100.00;101778.88;5059129;28;20020;-51
2022/07/30 04:14:00;;;;;;;44.80;20.23;;;;;;;14.93;100.00;101791.44;5057154;28;20276;-49
2022/07/30 04:16:37;;;;;;;39.97;20.08;;;;;;;14.92;100.00;101793.31;5058859;28;20017;-48
2022/07/30 04:19:07;;;;;;;37.55;19.23;;;;;;;14.92;100.00;101793.31;5056228;28;20035;-51
2022/07/30 04:21:34;;;;;;;32.38;18.67;;;;;;;14.95;100.00;101796.66;5058859;28;20089;-50
2022/07/30 04:24:03;;;;;;;38.72;20.52;;;;;;;14.83;100.00;101796.97;5053367;28;20395;-51
2022/07/30 04:26:31;;;;;;;33.35;19.73;;;;;;;14.71;100.00;101793.78;5058610;28;20099;-51
2022/07/30 04:28:58;;;;;;;33.13;20.23;;;;;;;14.69;100.00;101794.94;5057207;28;20025;-47
2022/07/30 04:31:24;;;;;;;36.05;19.95;;;;;;;14.69;100.00;101794.94;5057532;28;20127;-50
2022/07/30 04:33:49;;;;;;;33.75;20.75;;;;;;;14.71;100.00;101790.25;5056946;28;20111;-49
2022/07/30 04:36:14;;;;;;;32.80;19.75;;;;;;;14.84;100.00;101800.53;5058412;28;20017;-47
2022/07/30 04:38:40;;;;;;;31.55;19.23;;;;;;;14.87;100.00;101808.28;5057813;28;20021;-48
2022/07/30 04:41:05;;;;;;;35.97;19.40;;;;;;;14.93;100.00;101807.59;5057830;28;20075;-50
2022/07/30 04:43:30;;;;;;;34.40;20.42;;;;;;;14.96;100.00;101812.63;5058368;28;20020;-49
2022/07/30 04:45:56;;;;;;;35.30;21.20;;;;;;;15.00;100.00;101811.28;5056963;28;20029;-50
2022/07/30 04:48:21;;;;;;;37.40;20.20;;;;;;;15.02;100.00;101816.50;5056549;28;20021;-51
2022/07/30 04:50:50;;;;;;;33.17;19.42;;;;;;;14.95;100.00;101821.69;5057363;28;20024;-51
2022/07/30 04:53:18;;;;;;;32.13;19.65;;;;;;;14.89;100.00;101817.00;5058065;28;20024;-52
2022/07/30 04:55:47;;;;;;;33.53;20.27;;;;;;;14.83;100.00;101829.25;5044402;28;20033;-50
2022/07/30 04:58:15;;;;;;;31.48;20.38;;;;;;;14.80;100.00;101832.28;5057676;28;20021;-50
2022/07/30 05:00:41;;;;;;;31.50;18.75;;;;;;;14.74;100.00;101831.09;5056262;28;20024;-50
2022/07/30 05:03:10;;;;;;;31.70;19.88;;;;;;;14.72;100.00;101834.97;5056768;28;20063;-48
2022/07/30 05:05:36;;;;;;;37.20;19.48;;;;;;;14.64;100.00;101824.19;5057153;28;20556;-48
2022/07/30 05:08:02;;;;;;;31.83;19.42;;;;;;;14.70;100.00;101827.06;5054415;28;20044;-51
2022/07/30 05:10:28;;;;;;;35.05;21.00;;;;;;;14.80;100.00;101828.75;5048447;28;20024;-47
2022/07/30 05:12:54;;;;;;;38.80;19.98;;;;;;;14.82;100.00;101827.59;5057917;28;20395;-50
2022/07/30 05:15:19;;;;;;;33.97;19.63;;;;;;;14.82;100.00;101830.28;5055708;28;20033;-48
2022/07/30 05:17:45;;;;;;;32.58;19.98;;;;;;;14.94;100.00;101835.34;5056812;28;20073;-49
2022/07/30 05:20:10;;;;;;;38.28;20.48;;;;;;;15.03;100.00;101834.34;5055115;28;20444;-50
2022/07/30 05:22:36;;;;;;;35.67;19.70;;;;;;;15.08;100.00;101838.19;5057201;28;20200;-47
2022/07/30 05:25:01;;;;;;;38.45;20.38;;;;;;;15.17;100.00;101830.13;5057520;28;20020;-51
2022/07/30 05:27:26;;;;;;;43.70;20.00;;;;;;;15.15;100.00;101818.72;5057121;28;20329;-47
2022/07/30 05:29:52;;;;;;;35.45;19.70;;;;;;;15.20;100.00;101830.66;5055746;28;20077;-48
2022/07/30 05:32:17;;;;;;;35.75;20.50;;;;;;;15.22;100.00;101828.66;5056374;28;20087;-48
2022/07/30 05:34:42;;;;;;;34.45;20.63;;;;;;;15.26;100.00;101835.38;5056687;28;20031;-49
2022/07/30 05:37:08;;;;;;;34.63;19.90;;;;;;;15.33;100.00;101830.16;5057159;28;20028;-49
2022/07/30 05:39:33;;;;;;;35.85;20.17;;;;;;;15.39;100.00;101831.31;5054392;28;20040;-51
2022/07/30 05:41:58;;;;;;;35.40;18.80;;;;;;;15.48;100.00;101835.72;5057867;28;20015;-51
2022/07/30 05:44:24;;;;;;;37.70;19.02;;;;;;;15.53;100.00;101846.81;5045620;28;20353;-47
2022/07/30 05:46:49;;;;;;;30.52;18.70;;;;;;;15.61;100.00;101845.94;5052210;28;20592;-50
2022/07/30 05:49:14;;;;;;;40.15;18.73;;;;;;;15.67;100.00;101842.59;5056248;28;20451;-48
2022/07/30 05:51:40;;;;;;;31.38;18.17;;;;;;;15.73;100.00;101841.06;5056858;28;20036;-50
2022/07/30 05:54:06;;;;;;;30.88;18.10;;;;;;;15.81;100.00;101851.84;5056361;28;20475;-47
2022/07/30 05:56:31;;;;;;;38.50;17.75;;;;;;;15.84;100.00;101855.03;5056320;28;20027;-49
2022/07/30 05:58:57;;;;;;;34.65;17.98;;;;;;;15.91;100.00;101852.50;5054715;28;20524;-46
2022/07/30 06:01:22;;;;;;;38.60;17.40;;;;;;;15.95;100.00;101859.22;5056841;28;20032;-47
2022/07/30 06:03:47;;;;;;;36.90;18.25;;;;;;;15.97;100.00;101854.53;5055506;28;20313;-47
2022/07/30 06:06:13;;;;;;;29.23;16.50;;;;;;;16.00;100.00;101859.56;5056758;28;20111;-46
2022/07/30 06:08:38;;;;;;;28.55;16.40;;;;;;;16.06;100.00;101855.34;5056489;28;20478;-47
2022/07/30 06:11:03;;;;;;;30.48;16.45;;;;;;;16.08;100.00;101858.69;5055603;28;20498;-48
2022/07/30 06:13:29;;;;;;;33.25;16.38;;;;;;;16.17;100.00;101859.50;5056699;28;20107;-47
2022/07/30 06:15:54;;;;;;;39.25;16.30;;;;;;;16.25;100.00;101859.50;5052887;28;20168;-49
2022/07/30 06:18:20;;;;;;;34.13;16.20;;;;;;;16.34;100.00;101863.81;5054005;28;20024;-46
2022/07/30 06:20:45;;;;;;;26.08;15.38;;;;;;;16.42;100.00;101866.50;5056566;28;20021;-47
2022/07/30 06:23:11;;;;;;;27.83;15.32;;;;;;;16.50;100.00;101871.03;5051033;28;20060;-47
2022/07/30 06:25:36;;;;;;;29.92;14.68;;;;;;;16.58;100.00;101868.28;5056225;28;20086;-48
2022/07/30 06:28:02;;;;;;;34.40;13.88;;;;;;;16.74;100.00;101872.75;5056505;28;20538;-50
2022/07/30 06:30:28;;;;;;;24.77;13.50;;;;;;;16.79;100.00;101872.22;5054648;28;20502;-47
2022/07/30 06:32:53;;;;;;;24.83;13.07;;;;;;;16.89;100.00;101872.88;5069967;28;20039;-46
2022/07/30 06:35:19;;;;;;;19.85;11.45;;;;;;;16.95;100.00;101874.00;5055608;28;20016;-48
2022/07/30 06:37:44;;;;;;;23.05;11.40;;;;;;;17.03;100.00;101873.13;5056542;28;20021;-46
2022/07/30 06:40:10;;;;;;;29.90;10.93;;;;;;;17.18;100.00;101876.75;5054974;28;20299;-48
2022/07/30 06:42:36;;;;;;;20.45;10.52;;;;;;;17.35;100.00;101872.06;5056513;28;20016;-49
2022/07/30 06:45:01;;;;;;;22.33;9.73;;;;;;;17.49;100.00;101876.66;5053111;28;20095;-49
2022/07/30 06:47:28;;;;;;;17.70;9.07;;;;;;;17.65;100.00;101875.69;5055205;28;20028;-47
2022/07/30 06:49:56;;;;;;;19.77;9.68;;;;;;;17.80;100.00;101878.41;5054791;28;20446;-47
2022/07/30 06:52:22;;;;;;;22.45;8.68;;;;;;;17.92;100.00;101873.41;5056168;28;20028;-49
2022/07/30 06:54:48;;;;;;;17.60;7.95;;;;;;;17.98;100.00;101874.56;5055514;28;20035;-47
2022/07/30 06:57:14;;;;;;;19.77;7.75;;;;;;;18.11;100.00;101876.59;5055614;28;20025;-47
2022/07/30 06:59:39;;;;;;;18.88;7.82;;;;;;;18.22;100.00;101876.97;5054110;28;20450;-48
2022/07/30 07:02:05;;;;;;;15.60;7.60;;;;;;;18.25;100.00;101887.44;5054691;28;20032;-47
2022/07/30 07:04:33;;;;;;;23.08;7.57;;;;;;;18.29;100.00;101884.38;5071571;28;20051;-45
2022/07/30 07:06:58;;;;;;;18.80;6.78;;;;;;;18.34;100.00;101877.34;5055373;28;20069;-48
2022/07/30 07:09:24;;;;;;;19.15;6.60;;;;;;;18.30;100.00;101877.94;5055113;28;20024;-49
2022/07/30 07:11:49;;;;;;;13.00;6.70;;;;;;;18.31;100.00;101879.59;5055873;28;20410;-50
2022/07/30 07:14:15;;;;;;;20.17;6.63;;;;;;;18.26;100.00;101877.44;5054262;28;20036;-46
2022/07/30 07:16:40;;;;;;;22.45;6.22;;;;;;;18.30;100.00;101875.25;5055414;28;20024;-48
2022/07/30 07:19:05;;;;;;;16.63;6.32;;;;;;;18.39;100.00;101884.91;5054118;28;20020;-46
2022/07/30 07:21:30;;;;;;;14.10;5.47;;;;;;;18.66;100.00;101885.28;5056373;28;20052;-46
2022/07/30 07:23:59;;;;;;;13.45;4.35;;;;;;;18.85;100.00;101881.97;5053813;28;20089;-49
2022/07/30 07:26:24;;;;;;;11.18;4.00;;;;;;;18.95;100.00;101887.91;5055509;28;20040;-49
2022/07/30 07:28:50;;;;;;;19.90;4.20;;;;;;;19.18;100.00;101887.75;5053496;28;20028;-48
2022/07/30 07:31:15;;;;;;;12.48;4.55;;;;;;;19.50;100.00;101890.13;5054172;28;20024;-47
2022/07/30 07:33:41;;;;;;;14.52;4.28;;;;;;;19.82;98.04;101883.31;5054294;28;20551;-50
2022/07/30 07:36:06;;;;;;;12.20;4.00;;;;;;;20.08;93.26;101881.88;5054900;28;20051;-49
2022/07/30 07:38:32;;;;;;;12.02;3.90;;;;;;;20.10;93.40;101891.47;5055523;28;20458;-45
2022/07/30 07:40:57;;;;;;;10.38;3.97;;;;;;;20.21;91.96;101883.81;5054137;28;20032;-49
2022/07/30 07:43:24;;;;;;;10.68;3.35;;;;;;;20.25;92.58;101893.22;5053370;28;20045;-47
2022/07/30 07:45:50;;;;;;;13.55;4.18;;;;;;;20.18;92.47;101889.63;5042342;28;20051;-50
2022/07/30 07:48:16;;;;;;;10.65;3.30;;;;;;;20.01;90.34;101891.81;5053892;28;20067;-48
2022/07/30 07:50:42;;;;;;;12.25;3.60;;;;;;;20.05;94.76;101896.66;5054981;28;20034;-50
2022/07/30 07:53:07;;;;;;;9.00;3.42;;;;;;;20.16;91.50;101889.81;5054896;28;20032;-48
2022/07/30 07:55:32;;;;;;;11.60;3.67;;;;;;;20.41;92.81;101886.63;5055984;28;20021;-51
2022/07/30 07:57:57;;;;;;;11.90;3.38;;;;;;;20.38;87.86;101890.56;5054495;28;20463;-50
2022/07/30 08:00:23;;;;;;;10.73;3.35;;;;;;;20.34;88.92;101891.19;5052626;28;20056;-48
2022/07/30 08:02:49;;;;;;;8.43;3.33;;;;;;;20.35;88.65;101893.72;5054325;28;20120;-50
2022/07/30 08:05:16;;;;;;;11.85;4.03;;;;;;;20.34;86.84;101886.59;5054665;28;20101;-47
2022/07/30 08:07:42;;;;;;;10.73;4.18;;;;;;;20.58;89.17;101884.41;5053437;28;20102;-48
2022/07/30 08:10:09;;;;;;;10.15;4.28;;;;;;;20.61;85.63;101889.44;5054273;28;20088;-49
2022/07/30 08:12:35;;;;;;;12.80;3.75;;;;;;;20.67;86.60;101884.06;5053379;28;20067;-49
2022/07/30 08:15:02;;;;;;;14.80;4.22;;;;;;;20.81;87.29;101878.69;5051396;28;20029;-48
2022/07/30 08:17:28;;;;;;;9.05;3.80;;;;;;;20.91;84.37;101883.72;5054186;28;20544;-49
2022/07/30 08:19:57;;;;;;;13.68;4.32;;;;;;;20.86;82.90;101882.47;5054373;28;20029;-51
2022/07/30 08:22:22;;;;;;;11.13;3.33;;;;;;;20.93;81.98;101887.91;5051916;28;20076;-48
2022/07/30 08:24:48;;;;;;;9.57;3.95;;;;;;;20.94;85.06;101881.41;5050614;28;20028;-51
2022/07/30 08:27:13;;;;;;;12.93;3.70;;;;;;;20.86;82.39;101885.19;5055208;28;20052;-51
2022/07/30 08:29:38;;;;;;;8.40;3.45;;;;;;;20.89;81.04;101889.34;5053116;28;20487;-48
2022/07/30 08:32:04;;;;;;;9.15;3.40;;;;;;;21.05;82.24;101886.25;5052942;28;20024;-51
2022/07/30 08:34:29;;;;;;;13.23;3.72;;;;;;;21.08;83.85;101886.88;5057827;28;20024;-49
2022/07/30 08:36:55;;;;;;;9.75;3.40;;;;;;;21.10;81.54;101882.13;5058417;28;20109;-49
2022/07/30 08:39:20;;;;;;;12.70;4.13;;;;;;;21.14;82.24;101886.91;5058292;28;20099;-48
2022/07/30 08:41:47;;;;;;;11.50;3.90;;;;;;;21.16;82.62;101889.41;5058631;28;20035;-51
2022/07/30 08:44:15;;;;;;;13.82;3.08;;;;;;;21.25;75.95;101893.63;5056750;28;20046;-49
2022/07/30 08:46:42;;;;;;;7.43;2.70;;;;;;;21.38;75.34;101888.19;5057369;28;20031;-51
2022/07/30 08:49:10;;;;;;;8.43;2.72;;;;;;;21.47;77.39;101882.59;5057175;28;20028;-50
2022/07/30 08:51:36;;;;;;;6.88;2.80;;;;;;;21.52;76.92;101886.38;5058341;28;20111;-49
2022/07/30 08:54:02;;;;;;;10.35;2.83;;;;;;;21.60;75.88;101896.19;5058289;28;20115;-52
2022/07/30 08:56:28;;;;;;;9.55;2.63;;;;;;;21.69;73.89;101894.09;5057825;28;20025;-52
2022/07/30 08:58:54;;;;;;;10.68;2.97;;;;;;;21.85;73.96;101895.56;5056387;28;20044;-52
2022/07/30 09:01:21;;;;;;;6.18;2.40;;;;;;;21.94;74.50;101892.38;5058034;28;20036;-51
2022/07/30 09:03:46;;;;;;;10.07;2.55;;;;;;;22.06;70.85;101884.41;5056756;28;20498;-51
2022/07/30 09:06:12;;;;;;;6.70;2.10;;;;;;;22.23;67.91;101882.06;5057036;28;20012;-48
2022/07/30 09:08:37;;;;;;;7.15;2.63;;;;;;;22.21;68.69;101878.75;5048501;28;20021;-51
2022/07/30 09:11:03;;;;;;;6.43;2.10;;;;;;;22.38;71.23;101883.75;5055112;28;20024;-50
2022/07/30 09:13:30;;;;;;;7.65;2.40;;;;;;;22.35;66.03;101887.72;5057940;28;20021;-52
2022/07/30 09:15:57;;;;;;;7.75;2.00;;;;;;;22.49;66.82;101894.00;5056528;28;20024;-52
2022/07/30 09:18:37;;;;;;;7.30;2.28;;;;;;;22.69;65.95;101902.06;5056366;28;20032;-49
2022/07/30 09:21:25;;;;;;;5.03;2.03;;;;;;;22.76;63.20;101893.84;5057891;28;20674;-49
2022/07/30 09:24:04;;;;;;;8.57;2.13;;;;;;;22.84;66.77;101899.06;5057317;28;20028;-48
2022/07/30 09:26:31;;;;;;;7.25;2.00;;;;;;;22.87;67.42;101907.63;5057058;28;20200;-52
2022/07/30 09:29:17;;;;;;;9.77;1.92;;;;;;;22.86;65.49;101902.38;5056378;28;20427;-51
2022/07/30 09:32:05;;;;;;;7.85;2.40;;;;;;;23.03;64.45;101910.88;5072037;28;20020;-52
2022/07/30 09:34:36;;;;;;;6.15;2.20;;;;;;;23.02;64.68;101911.97;5071625;28;20028;-50
2022/07/30 09:37:15;;;;;;;7.88;2.47;;;;;;;22.83;62.64;101908.28;5057956;28;20011;-52
2022/07/30 09:39:41;;;;;;;8.40;2.25;;;;;;;22.97;62.94;101915.34;5057295;28;20421;-53
2022/07/30 09:42:37;;;;;;;4.63;1.90;;;;;;;23.22;62.87;101907.25;5056976;28;20021;-51
2022/07/30 09:45:08;;;;;;;10.50;2.50;;;;;;;23.03;60.48;101902.72;5027810;28;20116;-51
2022/07/30 09:47:36;;;;;;;6.15;2.25;;;;;;;23.12;60.67;101901.44;5055976;28;20066;-52
2022/07/30 09:50:06;;;;;;;4.57;1.92;;;;;;;23.38;61.41;101900.41;5057542;28;20032;-52
2022/07/30 09:52:31;;;;;;;5.47;1.90;;;;;;;23.55;64.65;101894.44;5057550;28;20561;-50
2022/07/30 09:54:57;;;;;;;10.73;2.38;;;;;;;23.65;58.63;101902.94;5070870;28;20039;-52
2022/07/30 09:57:22;;;;;;;13.77;2.50;;;;;;;23.67;56.77;101900.00;5056408;28;20240;-52
2022/07/30 09:59:48;;;;;;;7.30;2.38;;;;;;;23.86;58.59;101898.19;5055650;28;20135;-51
2022/07/30 10:02:13;;;;;;;7.05;1.95;;;;;;;24.07;58.74;101895.03;5056050;28;20020;-52
2022/07/30 10:04:38;;;;;;;9.82;2.03;;;;;;;24.34;57.95;101892.03;5056522;28;20155;-51
2022/07/30 10:07:04;;;;;;;5.82;1.95;;;;;;;24.34;57.35;101887.38;5056724;28;20215;-51
2022/07/30 10:09:34;;;;;;;6.90;1.83;;;;;;;24.49;60.56;101884.28;5071684;28;20028;-52
2022/07/30 10:12:04;;;;;;;5.00;1.80;;;;;;;24.51;55.92;101886.78;5056662;28;20272;-51
2022/07/30 10:14:34;;;;;;;7.35;2.20;;;;;;;24.49;56.35;101887.00;5055824;28;20156;-51
2022/07/30 10:17:00;;;;;;;7.28;2.38;;;;;;;24.28;55.48;101888.28;5055812;28;20020;-51
2022/07/30 10:19:26;;;;;;;5.32;1.98;;;;;;;24.54;62.78;101879.00;5056471;28;20460;-51
2022/07/30 10:21:55;;;;;;;5.28;1.92;;;;;;;24.59;62.47;101872.81;5055972;28;20021;-51
2022/07/30 10:24:22;;;;;;;4.22;1.90;;;;;;;24.60;56.72;101873.69;5050884;28;20028;-52
2022/07/30 10:26:49;;;;;;;9.02;2.28;;;;;;;24.53;54.79;101874.56;5042112;28;20656;-50
2022/07/30 10:29:18;;;;;;;8.10;2.35;;;;;;;24.61;55.83;101875.31;5055022;28;20983;-52
2022/07/30 10:31:44;;;;;;;6.28;2.00;;;;;;;24.71;56.84;101879.19;5055815;28;20568;-51
2022/07/30 10:34:15;;;;;;;5.40;1.83;;;;;;;24.80;55.14;101885.16;5056139;28;20024;-48
2022/07/30 10:36:44;;;;;;;5.93;1.85;;;;;;;24.91;54.62;101880.81;5055992;28;20023;-50
2022/07/30 10:39:16;;;;;;;5.50;1.80;;;;;;;25.12;54.07;101879.47;5054445;28;20074;-53
2022/07/30 10:42:12;;;;;;;5.85;1.90;;;;;;;25.19;55.08;101885.66;5055810;28;20128;-52
2022/07/30 10:44:47;;;;;;;5.95;2.05;;;;;;;25.24;55.93;101894.00;5052999;28;20079;-49
2022/07/30 10:47:15;;;;;;;7.15;2.05;;;;;;;25.38;53.59;101880.97;5053873;28;20135;-49
2022/07/30 10:49:40;;;;;;;8.80;2.53;;;;;;;25.44;51.95;101881.91;5055831;28;20032;-49
2022/07/30 10:52:06;;;;;;;8.07;2.30;;;;;;;25.38;51.93;101891.09;5055605;28;20024;-51
2022/07/30 10:54:46;;;;;;;4.13;1.70;;;;;;;25.34;54.77;101888.00;5056241;28;20032;-50
2022/07/30 10:57:19;;;;;;;6.10;1.95;;;;;;;25.37;54.54;101889.41;5055613;28;20470;-51
2022/07/30 10:59:57;;;;;;;6.50;1.90;;;;;;;25.64;53.88;101884.31;5054478;28;20051;-51
2022/07/30 11:02:24;;;;;;;3.08;1.77;;;;;;;25.91;51.85;101887.41;5054896;28;20095;-52
2022/07/30 11:05:10;;;;;;;5.88;2.22;;;;;;;26.14;52.22;101872.91;5053630;28;20032;-52
2022/07/30 11:07:35;;;;;;;5.38;2.08;;;;;;;26.20;52.56;101871.94;5054242;28;20028;-51
2022/07/30 11:10:01;;;;;;;6.50;2.20;;;;;;;26.37;53.60;101874.75;5043677;28;20016;-51
2022/07/30 11:12:41;;;;;;;7.18;2.10;;;;;;;26.28;51.17;101878.97;5055514;28;20058;-50
2022/07/30 11:15:11;;;;;;;9.45;2.10;;;;;;;26.37;50.53;101877.50;5069064;28;20025;-50